Time;durP1;ratioP1;P1;durP2;ratioP2;P2;SDS_P1;SDS_P2;PMS_P1;PMS_P2;Temp;Humidity;BMP_temperature;BMP_pressure;BME280_temperature;BME280_humidity;BME280_pressure;Samples;Min_cycle;Max_cycle;Signal;HPM_P1;HPM_P2
2022/04/10 00:00:12;;;;;;;;;;;;;;;21.74;31.18;101691.91;7284202;19;153112;-58
2022/04/10 00:02:40;;;;;;;;;;;;;;;21.73;31.47;101690.22;7282403;19;155976;-58
2022/04/10 00:05:07;;;;;;;;;;;;;;;21.71;31.72;101696.13;7277531;19;152636;-58
2022/04/10 00:07:33;;;;;;;;;;;;;;;21.69;31.58;101701.25;7282767;19;153580;-57
2022/04/10 00:10:00;;;;;;;;;;;;;;;21.69;31.58;101690.00;7281973;19;153428;-58
2022/04/10 00:12:27;;;;;;;;;;;;;;;21.68;31.62;101698.72;7286531;19;151924;-58
2022/04/10 00:14:54;;;;;;;;;;;;;;;21.65;31.95;101700.16;7279414;19;154372;-58
2022/04/10 00:17:21;;;;;;;;;;;;;;;21.62;31.65;101695.09;7278459;19;152115;-58
2022/04/10 00:19:48;;;;;;;;;;;;;;;21.61;31.57;101692.63;7282845;19;152326;-58
2022/04/10 00:22:15;;;;;;;;;;;;;;;21.59;31.88;101695.72;7280081;19;152359;-59
2022/04/10 00:24:41;;;;;;;;;;;;;;;21.56;31.92;101701.09;7282624;19;151792;-58
2022/04/10 00:27:12;;;;;;;;;;;;;;;21.53;31.96;101696.09;7280763;19;153269;-58
2022/04/10 00:29:38;;;;;;;;;;;;;;;21.51;31.95;101687.09;7279407;19;154589;-58
2022/04/10 00:32:05;;;;;;;;;;;;;;;21.48;32.33;101696.97;7281636;19;152071;-58
2022/04/10 00:34:32;;;;;;;;;;;;;;;21.46;31.96;101693.59;7288866;19;155045;-58
2022/04/10 00:36:59;;;;;;;;;;;;;;;21.45;32.02;101691.94;7280391;19;151944;-57
2022/04/10 00:39:26;;;;;;;;;;;;;;;21.41;32.11;101693.66;7278234;19;153594;-58
2022/04/10 00:41:53;;;;;;;;;;;;;;;21.40;32.62;101696.75;7281433;19;153938;-58
2022/04/10 00:44:20;;;;;;;;;;;;;;;21.36;32.62;101701.28;7281378;19;152016;-58
2022/04/10 00:46:49;;;;;;;;;;;;;;;21.33;32.23;101697.13;7282076;19;152666;-58
2022/04/10 00:49:16;;;;;;;;;;;;;;;21.30;32.53;101692.91;7278103;19;153215;-58
2022/04/10 00:51:44;;;;;;;;;;;;;;;21.27;32.54;101699.13;7282266;19;152073;-58
2022/04/10 00:54:12;;;;;;;;;;;;;;;21.25;32.57;101686.53;7281458;19;153292;-58
2022/04/10 00:56:39;;;;;;;;;;;;;;;21.21;32.67;101683.44;7288176;19;153853;-58
2022/04/10 00:59:06;;;;;;;;;;;;;;;21.19;32.62;101694.16;7276145;19;153102;-57
2022/04/10 01:01:34;;;;;;;;;;;;;;;21.18;32.79;101677.56;7280825;19;153211;-57
2022/04/10 01:04:21;;;;;;;;;;;;;;;21.14;33.26;101688.56;7278749;19;152158;-58
2022/04/10 01:06:48;;;;;;;;;;;;;;;21.13;33.31;101688.84;7281526;19;153294;-58
2022/04/10 01:09:15;;;;;;;;;;;;;;;21.09;33.37;101696.16;7278720;19;153438;-58
2022/04/10 01:11:42;;;;;;;;;;;;;;;21.07;33.47;101702.09;7277942;19;151624;-58
2022/04/10 01:14:09;;;;;;;;;;;;;;;21.03;33.09;101700.19;7281791;19;152652;-58
2022/04/10 01:16:36;;;;;;;;;;;;;;;21.00;33.30;101697.94;7274281;19;153014;-58
2022/04/10 01:19:04;;;;;;;;;;;;;;;20.98;33.41;101691.78;7284049;19;151812;-58
2022/04/10 01:21:32;;;;;;;;;;;;;;;20.96;33.78;101702.47;7277657;19;153406;-59
2022/04/10 01:23:59;;;;;;;;;;;;;;;20.92;33.81;101690.13;7281080;19;151693;-59
2022/04/10 01:26:28;;;;;;;;;;;;;;;20.89;33.55;101701.97;7280628;19;154321;-58
2022/04/10 01:29:02;;;;;;;;;;;;;;;20.87;33.91;101699.44;7280272;19;155302;-58
2022/04/10 01:31:30;;;;;;;;;;;;;;;20.84;33.81;101709.31;7279653;19;152080;-58
2022/04/10 01:33:58;;;;;;;;;;;;;;;20.81;33.91;101697.78;7280467;19;153767;-58
2022/04/10 01:36:26;;;;;;;;;;;;;;;20.78;33.96;101696.41;7278623;19;154215;-58
2022/04/10 01:38:55;;;;;;;;;;;;;;;20.76;33.66;101690.25;7277264;19;151905;-58
2022/04/10 01:41:22;;;;;;;;;;;;;;;20.75;33.93;101688.59;7287040;19;151964;-58
2022/04/10 01:43:49;;;;;;;;;;;;;;;20.73;33.96;101690.00;7279949;19;152122;-57
2022/04/10 01:46:16;;;;;;;;;;;;;;;20.71;33.83;101690.31;7280873;19;152942;-58
2022/04/10 01:48:43;;;;;;;;;;;;;;;20.71;34.25;101692.28;7276522;19;154108;-57
2022/04/10 01:51:10;;;;;;;;;;;;;;;20.69;33.93;101692.56;7280627;19;152449;-57
2022/04/10 01:53:37;;;;;;;;;;;;;;;20.67;34.00;101677.94;7278752;19;153635;-58
2022/04/10 01:56:04;;;;;;;;;;;;;;;20.69;33.92;101680.47;7275886;19;154180;-57
2022/04/10 01:58:31;;;;;;;;;;;;;;;20.63;34.25;101674.06;7277994;19;151965;-57
2022/04/10 02:01:00;;;;;;;;;;;;;;;20.64;34.21;101672.09;7285942;19;153393;-58
2022/04/10 02:03:27;;;;;;;;;;;;;;;20.63;34.19;101676.84;7278662;19;152223;-58
2022/04/10 02:05:55;;;;;;;;;;;;;;;20.63;34.12;101681.63;7279459;19;153074;-57
2022/04/10 02:08:22;;;;;;;;;;;;;;;20.58;34.06;101674.09;7276429;19;153298;-57
2022/04/10 02:10:49;;;;;;;;;;;;;;;20.56;34.12;101672.72;7278786;19;151759;-57
2022/04/10 02:13:16;;;;;;;;;;;;;;;20.55;34.21;101673.84;7274360;19;153784;-56
2022/04/10 02:15:43;;;;;;;;;;;;;;;20.52;34.07;101669.66;7274789;19;153407;-58
2022/04/10 02:18:09;;;;;;;;;;;;;;;20.52;34.36;101672.47;7278494;19;151879;-58
2022/04/10 02:20:36;;;;;;;;;;;;;;;20.53;34.05;101671.34;7277818;19;153332;-58
2022/04/10 02:23:03;;;;;;;;;;;;;;;20.46;34.41;101672.78;7286063;19;153319;-57
2022/04/10 02:25:30;;;;;;;;;;;;;;;20.41;34.43;101674.47;7278479;19;151766;-57
2022/04/10 02:27:59;;;;;;;;;;;;;;;20.40;34.27;101683.19;7277123;19;155283;-56
2022/04/10 02:30:26;;;;;;;;;;;;;;;20.39;34.36;101664.69;7283393;19;151843;-57
2022/04/10 02:32:52;;;;;;;;;;;;;;;20.37;34.51;101673.38;7285181;19;152699;-56
2022/04/10 02:35:19;;;;;;;;;;;;;;;20.32;34.32;101670.59;7283842;19;153274;-57
2022/04/10 02:37:46;;;;;;;;;;;;;;;20.32;34.37;101665.00;7284830;19;153480;-57
2022/04/10 02:40:15;;;;;;;;;;;;;;;20.30;34.40;101672.88;7282172;19;153678;-57
2022/04/10 02:42:42;;;;;;;;;;;;;;;20.28;34.79;101669.47;7283150;19;153496;-57
2022/04/10 02:45:09;;;;;;;;;;;;;;;20.26;34.30;101666.09;7291251;19;151996;-58
2022/04/10 02:47:35;;;;;;;;;;;;;;;20.24;34.62;101668.38;7280697;19;153231;-57
2022/04/10 02:50:03;;;;;;;;;;;;;;;20.25;34.53;101663.63;7284909;19;151823;-57
2022/04/10 02:52:30;;;;;;;;;;;;;;;20.22;34.79;101667.81;7283539;19;155798;-57
2022/04/10 02:54:57;;;;;;;;;;;;;;;20.21;34.73;101663.34;7281315;19;154515;-57
2022/04/10 02:57:23;;;;;;;;;;;;;;;20.18;34.53;101672.34;7281385;19;152293;-57
2022/04/10 02:59:50;;;;;;;;;;;;;;;20.17;34.60;101670.66;7282694;19;154008;-56
2022/04/10 03:02:17;;;;;;;;;;;;;;;20.18;34.48;101672.34;7282330;19;153977;-57
2022/04/10 03:04:43;;;;;;;;;;;;;;;20.15;34.62;101670.13;7283074;19;151839;-57
2022/04/10 03:07:10;;;;;;;;;;;;;;;20.14;34.54;101673.19;7287513;19;153328;-57
2022/04/10 03:09:37;;;;;;;;;;;;;;;20.11;34.55;101674.63;7282971;19;153856;-57
2022/04/10 03:12:04;;;;;;;;;;;;;;;20.11;34.79;101682.19;7285142;19;152564;-56
2022/04/10 03:14:31;;;;;;;;;;;;;;;20.09;34.56;101676.03;7281092;19;154354;-57
2022/04/10 03:16:58;;;;;;;;;;;;;;;20.05;34.62;101678.56;7283993;19;152136;-57
2022/04/10 03:19:25;;;;;;;;;;;;;;;20.09;34.67;101687.25;7282982;19;152423;-56
2022/04/10 03:21:51;;;;;;;;;;;;;;;20.05;34.60;101688.94;7281268;19;153960;-57
2022/04/10 03:24:18;;;;;;;;;;;;;;;20.05;34.99;101680.53;7284488;19;151516;-57
2022/04/10 03:26:45;;;;;;;;;;;;;;;20.01;34.95;101685.88;7284437;19;151838;-56
2022/04/10 03:29:13;;;;;;;;;;;;;;;19.99;35.01;101680.56;7288469;19;153054;-57
2022/04/10 03:31:39;;;;;;;;;;;;;;;19.95;34.79;101687.88;7282112;19;152647;-57
2022/04/10 03:34:06;;;;;;;;;;;;;;;19.93;35.05;101681.72;7280618;19;154265;-57
2022/04/10 03:36:33;;;;;;;;;;;;;;;19.95;35.18;101685.06;7281655;19;152338;-56
2022/04/10 03:39:00;;;;;;;;;;;;;;;19.91;35.34;101683.13;7281576;19;153305;-56
2022/04/10 03:41:26;;;;;;;;;;;;;;;19.89;35.03;101686.22;7282306;19;153211;-57
2022/04/10 03:43:53;;;;;;;;;;;;;;;19.89;35.04;101688.19;7283889;19;151692;-57
2022/04/10 03:46:20;;;;;;;;;;;;;;;19.87;34.98;101690.44;7281523;19;152686;-57
2022/04/10 03:48:46;;;;;;;;;;;;;;;19.80;35.35;101696.34;7282435;19;152885;-57
2022/04/10 03:51:13;;;;;;;;;;;;;;;19.79;35.04;101691.88;7291435;19;151519;-56
2022/04/10 03:53:40;;;;;;;;;;;;;;;19.77;35.18;101694.09;7282182;19;152783;-56
2022/04/10 03:56:07;;;;;;;;;;;;;;;19.76;35.17;101692.41;7280904;19;151814;-56
2022/04/10 03:58:35;;;;;;;;;;;;;;;19.76;35.55;101688.81;7283061;19;152797;-56
2022/04/10 04:01:02;;;;;;;;;;;;;;;19.71;35.60;101689.66;7281702;19;154138;-56
2022/04/10 04:03:29;;;;;;;;;;;;;;;19.71;35.33;101702.84;7282648;19;151769;-56
2022/04/10 04:05:56;;;;;;;;;;;;;;;19.68;35.68;101695.81;7283433;19;153486;-56
2022/04/10 04:08:22;;;;;;;;;;;;;;;19.65;35.65;101687.97;7279843;19;154249;-56
2022/04/10 04:10:51;;;;;;;;;;;;;;;19.66;35.67;101700.03;7290319;19;152176;-56
2022/04/10 04:13:18;;;;;;;;;;;;;;;19.63;35.67;101692.16;7279760;19;153289;-56
2022/04/10 04:15:45;;;;;;;;;;;;;;;19.59;35.49;101697.50;7283153;19;151862;-56
2022/04/10 04:18:12;;;;;;;;;;;;;;;19.59;35.79;101689.09;7280805;19;153399;-56
2022/04/10 04:20:39;;;;;;;;;;;;;;;19.57;35.42;101694.19;7278919;19;153314;-56
2022/04/10 04:23:05;;;;;;;;;;;;;;;19.56;35.53;101695.28;7282582;19;151964;-56
2022/04/10 04:25:32;;;;;;;;;;;;;;;19.54;35.73;101694.72;7282182;19;153895;-56
2022/04/10 04:27:59;;;;;;;;;;;;;;;19.53;35.50;101698.66;7278978;19;153699;-56
2022/04/10 04:30:25;;;;;;;;;;;;;;;19.50;35.63;101697.25;7282403;19;152131;-56
2022/04/10 04:32:52;;;;;;;;;;;;;;;19.48;35.51;101699.53;7289333;19;153300;-56
2022/04/10 04:35:19;;;;;;;;;;;;;;;19.45;36.05;101694.47;7282271;19;151973;-56
2022/04/10 04:37:45;;;;;;;;;;;;;;;19.46;35.79;101704.56;7279787;19;152070;-56
2022/04/10 04:40:14;;;;;;;;;;;;;;;19.45;35.86;101700.06;7279571;19;155773;-56
2022/04/10 04:42:41;;;;;;;;;;;;;;;19.43;36.11;101701.44;7280941;19;151529;-57
2022/04/10 04:45:08;;;;;;;;;;;;;;;19.44;36.12;101697.56;7282756;19;152924;-57
2022/04/10 04:47:35;;;;;;;;;;;;;;;19.41;35.66;101698.91;7279397;19;154199;-56
2022/04/10 04:50:02;;;;;;;;;;;;;;;19.39;36.07;101704.00;7281632;19;151464;-57
2022/04/10 04:52:29;;;;;;;;;;;;;;;19.38;36.10;101704.25;7280102;19;153208;-57
2022/04/10 04:54:55;;;;;;;;;;;;;;;19.36;36.00;101704.53;7288511;19;153684;-57
2022/04/10 04:57:22;;;;;;;;;;;;;;;19.34;35.75;101703.16;7280581;19;153531;-57
2022/04/10 04:59:49;;;;;;;;;;;;;;;19.34;35.92;101711.56;7277534;19;155060;-56
2022/04/10 05:02:15;;;;;;;;;;;;;;;19.31;36.00;101706.50;7281266;19;151518;-59
2022/04/10 05:04:42;;;;;;;;;;;;;;;19.29;36.25;101701.19;7281299;19;153753;-58
2022/04/10 05:07:09;;;;;;;;;;;;;;;19.29;35.91;101712.41;7280576;19;153293;-55
2022/04/10 05:09:35;;;;;;;;;;;;;;;19.27;36.13;101714.63;7280822;19;151666;-56
2022/04/10 05:12:02;;;;;;;;;;;;;;;19.27;36.27;101719.38;7281103;19;155230;-58
2022/04/10 05:14:29;;;;;;;;;;;;;;;19.25;35.99;101716.88;7279047;19;155518;-58
2022/04/10 05:16:55;;;;;;;;;;;;;;;19.24;36.28;101709.59;7288805;19;151812;-59
2022/04/10 05:19:23;;;;;;;;;;;;;;;19.22;36.32;101710.97;7276257;19;153995;-58
2022/04/10 05:21:50;;;;;;;;;;;;;;;19.21;36.48;101710.16;7281492;19;151793;-58
2022/04/10 05:24:16;;;;;;;;;;;;;;;19.21;36.09;101709.31;7280589;19;153226;-57
2022/04/10 05:26:43;;;;;;;;;;;;;;;19.21;36.48;101710.16;7280170;19;153543;-58
2022/04/10 05:29:10;;;;;;;;;;;;;;;19.21;36.45;101724.19;7277897;19;151664;-58
2022/04/10 05:31:37;;;;;;;;;;;;;;;19.19;36.37;101720.81;7281286;19;153191;-58
2022/04/10 05:34:04;;;;;;;;;;;;;;;19.17;36.23;101725.00;7280415;19;152687;-58
2022/04/10 05:36:30;;;;;;;;;;;;;;;19.13;36.50;101726.66;7279985;19;151667;-58
2022/04/10 05:38:57;;;;;;;;;;;;;;;19.11;36.66;101724.16;7285731;19;152694;-58
2022/04/10 05:41:24;;;;;;;;;;;;;;;19.14;36.23;101720.78;7277434;19;152562;-58
2022/04/10 05:43:51;;;;;;;;;;;;;;;19.17;36.42;101723.03;7279928;19;153424;-58
2022/04/10 05:46:17;;;;;;;;;;;;;;;19.20;36.36;101719.69;7276639;19;153250;-58
2022/04/10 05:48:46;;;;;;;;;;;;;;;19.24;36.41;101729.22;7280666;19;151877;-59
2022/04/10 05:51:12;;;;;;;;;;;;;;;19.29;36.34;101726.41;7279913;19;153351;-58
2022/04/10 05:53:40;;;;;;;;;;;;;;;19.35;36.66;101733.66;7279030;19;153731;-59
2022/04/10 05:56:06;;;;;;;;;;;;;;;19.42;36.74;101725.00;7277195;19;151782;-59
2022/04/10 05:58:35;;;;;;;;;;;;;;;19.48;36.94;101733.16;7280613;19;152736;-59
2022/04/10 06:01:02;;;;;;;;;;;;;;;19.54;36.99;101731.16;7281871;19;151939;-58
2022/04/10 06:03:29;;;;;;;;;;;;;;;19.60;36.78;101735.66;7279445;19;153341;-58
2022/04/10 06:05:55;;;;;;;;;;;;;;;19.67;36.96;101730.56;7275826;19;155787;-60
2022/04/10 06:08:22;;;;;;;;;;;;;;;19.74;36.92;101741.50;7277323;19;151744;-58
2022/04/10 06:10:50;;;;;;;;;;;;;;;19.80;36.53;101741.22;7277565;19;151749;-58
2022/04/10 06:13:18;;;;;;;;;;;;;;;19.87;36.64;101744.56;7275258;19;153805;-58
2022/04/10 06:15:45;;;;;;;;;;;;;;;19.95;36.56;101745.94;7279552;19;151998;-58
2022/04/10 06:18:12;;;;;;;;;;;;;;;20.02;36.50;101742.84;7278768;19;153003;-59
2022/04/10 06:20:39;;;;;;;;;;;;;;;20.09;36.79;101741.41;7284083;19;154148;-59
2022/04/10 06:23:05;;;;;;;;;;;;;;;20.17;36.48;101751.22;7277269;19;152827;-59
2022/04/10 06:25:32;;;;;;;;;;;;;;;20.24;36.72;101746.13;7277855;19;154061;-58
2022/04/10 06:27:59;;;;;;;;;;;;;;;20.30;36.61;101751.47;7275290;19;152254;-59
2022/04/10 06:30:26;;;;;;;;;;;;;;;20.35;36.47;101745.81;7279588;19;155220;-58
2022/04/10 06:32:53;;;;;;;;;;;;;;;20.42;36.70;101745.50;7277497;19;155249;-59
2022/04/10 06:35:20;;;;;;;;;;;;;;;20.48;36.16;101747.16;7278264;19;151887;-59
2022/04/10 06:37:46;;;;;;;;;;;;;;;20.52;35.96;101751.06;7276998;19;153228;-59
2022/04/10 06:40:13;;;;;;;;;;;;;;;20.58;36.18;101749.09;7275801;19;153796;-58
2022/04/10 06:42:40;;;;;;;;;;;;;;;20.63;35.74;101747.06;7284661;19;152441;-59
2022/04/10 06:45:07;;;;;;;;;;;;;;;20.69;35.60;101747.88;7277181;19;152523;-58
2022/04/10 06:47:34;;;;;;;;;;;;;;;20.74;35.65;101750.66;7278747;19;152005;-59
2022/04/10 06:50:01;;;;;;;;;;;;;;;20.79;35.92;101747.81;7278426;19;152676;-59
2022/04/10 06:52:28;;;;;;;;;;;;;;;20.82;35.62;101748.06;7276309;19;153215;-59
2022/04/10 06:54:55;;;;;;;;;;;;;;;20.89;35.93;101744.09;7276824;19;152190;-59
2022/04/10 06:57:22;;;;;;;;;;;;;;;20.94;35.90;101749.69;7278809;19;151762;-59
2022/04/10 06:59:50;;;;;;;;;;;;;;;20.97;35.30;101740.66;7276319;19;152488;-58
2022/04/10 07:02:17;;;;;;;;;;;;;;;21.00;35.57;101743.72;7277531;19;151918;-59
2022/04/10 07:04:45;;;;;;;;;;;;;;;21.05;35.60;101745.66;7281882;19;153272;-59
2022/04/10 07:07:12;;;;;;;;;;;;;;;21.10;35.48;101742.81;7275839;19;151923;-59
2022/04/10 07:09:40;;;;;;;;;;;;;;;21.13;35.04;101745.91;7275940;19;152339;-59
2022/04/10 07:12:07;;;;;;;;;;;;;;;21.17;35.21;101754.56;7273662;19;153402;-59
2022/04/10 07:14:33;;;;;;;;;;;;;;;21.20;34.98;101754.00;7278921;19;152015;-59
2022/04/10 07:17:00;;;;;;;;;;;;;;;21.22;35.33;101748.91;7283823;19;153351;-59
2022/04/10 07:19:27;;;;;;;;;;;;;;;21.23;35.29;101743.00;7281073;19;154428;-59
2022/04/10 07:24:40;;;;;;;;;;;;;;;21.27;34.81;101751.69;7283374;19;153378;-59
2022/04/10 07:27:07;;;;;;;;;;;;;;;21.30;35.09;101756.75;7290008;19;152064;-58
2022/04/10 07:29:33;;;;;;;;;;;;;;;21.32;34.92;101754.47;7281554;19;152259;-58
2022/04/10 07:32:00;;;;;;;;;;;;;;;21.33;35.39;101752.50;7280741;19;153248;-57
2022/04/10 07:34:28;;;;;;;;;;;;;;;21.35;35.15;101750.25;7283110;19;151793;-57
2022/04/10 07:36:55;;;;;;;;;;;;;;;21.36;35.00;101757.53;7280527;19;152527;-57
2022/04/10 07:39:22;;;;;;;;;;;;;;;21.35;35.17;101759.47;7282629;19;152942;-57
2022/04/10 07:41:49;;;;;;;;;;;;;;;21.36;34.91;101760.31;7279796;19;151897;-57
2022/04/10 07:44:16;;;;;;;;;;;;;;;21.37;35.69;101748.78;7282515;19;152655;-56
2022/04/10 07:49:28;;;;;;;;;;;;;;;21.32;34.54;101764.88;7291044;19;151807;-55
2022/04/10 07:51:56;;;;;;;;;;;;;;;21.28;33.73;101756.19;7279694;19;154322;-55
2022/04/10 07:54:29;;;;;;;;;;;;;;;21.25;33.73;101759.59;7282956;19;152133;-55
2022/04/10 07:56:55;;;;;;;;;;;;;;;21.21;34.19;101764.13;7284078;19;152557;-55
2022/04/10 07:59:23;;;;;;;;;;;;;;;21.29;33.72;101766.31;7280605;19;156553;-59
2022/04/10 08:01:50;;;;;;;;;;;;;;;21.34;34.45;101760.66;7279321;19;152469;-59
2022/04/10 08:04:17;;;;;;;;;;;;;;;21.36;34.59;101768.75;7283470;19;155777;-58
2022/04/10 08:06:44;;;;;;;;;;;;;;;21.38;34.24;101772.13;7280321;19;154252;-54
2022/04/10 08:09:10;;;;;;;;;;;;;;;21.36;34.41;101775.22;7290837;19;151721;-54
2022/04/10 08:11:37;;;;;;;;;;;;;;;21.36;34.00;101774.38;7281768;19;153880;-55
2022/04/10 08:14:04;;;;;;;;;;;;;;;21.36;33.76;101769.59;7280244;19;152163;-54
2022/04/10 08:16:31;;;;;;;;;;;;;;;21.40;33.21;101786.72;7283165;19;154059;-54
2022/04/10 08:18:58;;;;;;;;;;;;;;;21.39;33.21;101782.25;7279863;19;153501;-54
2022/04/10 08:21:24;;;;;;;;;;;;;;;21.36;32.72;101783.66;7277720;19;151984;-54
2022/04/10 08:23:51;;;;;;;;;;;;;;;21.35;32.94;101773.53;7283027;19;155190;-57
2022/04/10 08:26:18;;;;;;;;;;;;;;;21.40;32.78;101781.09;7276780;19;154355;-55
2022/04/10 08:28:45;;;;;;;;;;;;;;;21.39;33.08;101768.19;7281417;19;152627;-55
2022/04/10 08:31:11;;;;;;;;;;;;;;;21.44;32.98;101777.41;7286858;19;153443;-55
2022/04/10 08:33:38;;;;;;;;;;;;;;;21.46;33.30;101785.56;7283021;19;151871;-54
2022/04/10 08:36:05;;;;;;;;;;;;;;;21.52;32.87;101784.38;7280471;19;152709;-56
2022/04/10 08:38:36;;;;;;;;;;;;;;;21.54;32.86;101777.31;7280923;19;153113;-54
2022/04/10 08:41:03;;;;;;;;;;;;;;;21.60;32.76;101772.50;7278537;19;151632;-54
2022/04/10 08:43:30;;;;;;;;;;;;;;;21.56;32.87;101768.59;7279004;19;153760;-54
2022/04/10 08:45:57;;;;;;;;;;;;;;;21.59;32.98;101765.19;7277006;19;152643;-56
2022/04/10 08:48:30;;;;;;;;;;;;;;;21.65;33.08;101769.63;7282410;19;151893;-54
2022/04/10 08:51:06;;;;;;;;;;;;;;;21.67;33.04;101759.75;7282645;19;152872;-54
2022/04/10 08:53:34;;;;;;;;;;;;;;;21.68;32.96;101772.69;7288470;19;153836;-54
2022/04/10 08:56:01;;;;;;;;;;;;;;;21.71;33.14;101760.81;7282785;19;152692;-54
2022/04/10 08:58:31;;;;;;;;;;;;;;;21.73;32.93;101766.16;7281674;19;153399;-54
2022/04/10 09:01:02;;;;;;;;;;;;;;;21.76;32.75;101761.94;7279659;19;151587;-54
2022/04/10 09:03:30;;;;;;;;;;;;;;;21.79;32.53;101766.97;7279359;19;153936;-54
2022/04/10 09:06:04;;;;;;;;;;;;;;;21.79;32.59;101765.00;7278226;19;154068;-54
2022/04/10 09:08:35;;;;;;;;;;;;;;;21.82;32.41;101766.34;7281218;19;151631;-54
2022/04/10 09:11:06;;;;;;;;;;;;;;;21.84;32.46;101764.09;7278249;19;152742;-54
2022/04/10 09:13:39;;;;;;;;;;;;;;;21.86;32.42;101759.00;7277201;19;153127;-54
2022/04/10 09:16:09;;;;;;;;;;;;;;;21.88;32.25;101760.41;7286081;19;151922;-54
2022/04/10 09:18:56;;;;;;;;;;;;;;;21.91;32.31;101765.41;7279961;19;154019;-54
2022/04/10 09:21:30;;;;;;;;;;;;;;;21.94;32.43;101747.16;7280206;19;151760;-54
2022/04/10 09:24:01;;;;;;;;;;;;;;;21.97;32.49;101752.16;7279812;19;152836;-54
2022/04/10 09:26:45;;;;;;;;;;;;;;;21.99;32.19;101755.50;7277718;19;154065;-54
2022/04/10 09:29:16;;;;;;;;;;;;;;;22.02;31.91;101752.13;7279295;19;151651;-54
2022/04/10 09:31:43;;;;;;;;;;;;;;;22.03;32.17;101756.63;7280713;19;151995;-54
2022/04/10 09:34:14;;;;;;;;;;;;;;;22.05;31.84;101749.53;7279867;19;154369;-54
2022/04/10 09:36:41;;;;;;;;;;;;;;;22.08;31.56;101750.91;7280389;19;152670;-54
2022/04/10 09:39:11;;;;;;;;;;;;;;;22.08;31.27;101753.72;7285510;19;155351;-54
2022/04/10 09:41:39;;;;;;;;;;;;;;;22.10;31.36;101757.06;7277007;19;151950;-55
2022/04/10 09:44:12;;;;;;;;;;;;;;;22.11;31.60;101750.31;7280630;19;153492;-54
2022/04/10 09:46:40;;;;;;;;;;;;;;;22.11;31.87;101751.16;7279646;19;154195;-54
2022/04/10 09:49:17;;;;;;;;;;;;;;;22.11;31.43;101744.69;7280192;19;151609;-54
2022/04/10 09:51:59;;;;;;;;;;;;;;;22.11;31.30;101753.97;7280427;19;155476;-54
2022/04/10 09:54:31;;;;;;;;;;;;;;;22.12;31.45;101754.81;7276687;19;155103;-54
2022/04/10 09:57:01;;;;;;;;;;;;;;;22.11;31.06;101745.53;7280836;19;152084;-54
2022/04/10 09:59:29;;;;;;;;;;;;;;;22.10;30.95;101735.41;7278464;19;152703;-54
2022/04/10 10:01:56;;;;;;;;;;;;;;;22.09;30.50;101738.50;7284713;19;152416;-54
2022/04/10 10:04:24;;;;;;;;;;;;;;;22.05;30.76;101738.28;7279815;19;152913;-54
2022/04/10 10:06:51;;;;;;;;;;;;;;;22.05;30.91;101737.44;7278817;19;153571;-54
2022/04/10 10:09:18;;;;;;;;;;;;;;;22.03;30.81;101737.72;7280533;19;151510;-54
2022/04/10 10:11:46;;;;;;;;;;;;;;;22.01;30.82;101728.75;7278907;19;152763;-54
2022/04/10 10:14:13;;;;;;;;;;;;;;;21.99;30.49;101730.19;7275974;19;152706;-54
2022/04/10 10:16:41;;;;;;;;;;;;;;;21.98;30.61;101726.56;7276582;19;151867;-55
2022/04/10 10:19:08;;;;;;;;;;;;;;;21.95;30.87;101735.56;7279376;19;153161;-54
2022/04/10 10:21:36;;;;;;;;;;;;;;;21.96;30.71;101731.63;7284211;19;154227;-54
2022/04/10 10:24:04;;;;;;;;;;;;;;;21.95;30.39;101726.28;7276857;19;153181;-54
2022/04/10 10:26:53;;;;;;;;;;;;;;;21.94;30.32;101727.44;7277306;19;153814;-54
2022/04/10 10:29:38;;;;;;;;;;;;;;;21.91;30.62;101740.09;7279654;19;151668;-54
2022/04/10 10:32:41;;;;;;;;;;;;;;;21.89;30.37;101731.13;7278475;19;153732;-54
2022/04/10 10:35:11;;;;;;;;;;;;;;;21.89;30.67;101728.31;7273336;19;153990;-54
2022/04/10 10:37:52;;;;;;;;;;;;;;;21.86;30.76;101728.03;7277676;19;151833;-54
2022/04/10 10:40:19;;;;;;;;;;;;;;;21.85;30.58;101726.41;7279547;19;152943;-54
2022/04/10 10:42:47;;;;;;;;;;;;;;;21.83;30.36;101728.66;7272394;19;154228;-54
2022/04/10 10:45:35;;;;;;;;;;;;;;;21.81;30.67;101728.09;7286506;19;151802;-55
2022/04/10 10:48:21;;;;;;;;;;;;;;;21.79;30.81;101731.22;7275954;19;153210;-54
2022/04/10 10:50:49;;;;;;;;;;;;;;;21.77;31.17;101730.69;7285378;19;151956;-54
2022/04/10 10:53:20;;;;;;;;;;;;;;;21.75;31.19;101721.72;7283117;19;153671;-54
2022/04/10 10:55:49;;;;;;;;;;;;;;;21.73;30.77;101724.81;7284561;19;154236;-54
2022/04/10 10:58:32;;;;;;;;;;;;;;;21.72;31.09;101717.50;7284991;19;152254;-54
2022/04/10 11:01:05;;;;;;;;;;;;;;;21.71;30.91;101704.56;7284844;19;153198;-54
2022/04/10 11:03:31;;;;;;;;;;;;;;;21.70;30.89;101705.72;7283413;19;153138;-54
2022/04/10 11:06:14;;;;;;;;;;;;;;;21.69;31.35;101706.88;7283551;19;151969;-54
2022/04/10 11:08:41;;;;;;;;;;;;;;;21.67;30.76;101699.84;7290930;19;153926;-54
2022/04/10 11:11:07;;;;;;;;;;;;;;;21.65;30.96;101705.78;7282449;19;152244;-54
2022/04/10 11:13:37;;;;;;;;;;;;;;;21.64;30.95;101698.47;7282250;19;153662;-54
2022/04/10 11:16:08;;;;;;;;;;;;;;;21.62;30.75;101694.31;7281079;19;153432;-54
2022/04/10 11:18:42;;;;;;;;;;;;;;;21.60;31.16;101696.56;7282424;19;151650;-55
2022/04/10 11:21:15;;;;;;;;;;;;;;;21.57;31.04;101685.91;7282305;19;152879;-54
2022/04/10 11:23:52;;;;;;;;;;;;;;;21.55;31.21;101693.78;7283383;19;154360;-54
2022/04/10 11:26:22;;;;;;;;;;;;;;;21.52;31.18;101700.88;7285006;19;152021;-54
2022/04/10 11:28:54;;;;;;;;;;;;;;;21.50;30.94;101683.44;7283746;19;152059;-55
2022/04/10 11:31:31;;;;;;;;;;;;;;;21.49;31.06;101670.50;7290336;19;153089;-54
2022/04/10 11:34:14;;;;;;;;;;;;;;;21.49;31.06;101678.09;7284262;19;153599;-54
2022/04/10 11:36:52;;;;;;;;;;;;;;;21.46;31.09;101682.38;7283176;19;154377;-54
2022/04/10 11:39:37;;;;;;;;;;;;;;;21.43;30.85;101668.06;7284470;19;152230;-54
2022/04/10 11:42:12;;;;;;;;;;;;;;;21.41;31.05;101687.19;7280744;19;152663;-54
2022/04/10 11:44:39;;;;;;;;;;;;;;;21.37;30.47;101681.34;7282280;19;154120;-54
2022/04/10 11:47:08;;;;;;;;;;;;;;;21.35;30.61;101665.91;7281952;19;152068;-54
2022/04/10 11:49:36;;;;;;;;;;;;;;;21.34;30.74;101664.22;7283714;19;154424;-54
2022/04/10 11:52:03;;;;;;;;;;;;;;;21.33;30.75;101663.38;7280906;19;153191;-54
2022/04/10 11:54:32;;;;;;;;;;;;;;;21.32;30.84;101655.22;7291314;19;151954;-54
2022/04/10 11:57:00;;;;;;;;;;;;;;;21.29;30.85;101657.53;7279859;19;154410;-54
2022/04/10 11:59:34;;;;;;;;;;;;;;;21.29;30.80;101659.50;7282568;19;151622;-54
2022/04/10 12:02:01;;;;;;;;;;;;;;;21.26;30.71;101643.19;7282879;19;153247;-54
2022/04/10 12:04:29;;;;;;;;;;;;;;;21.23;30.75;101638.19;7282662;19;154288;-54
2022/04/10 12:07:14;;;;;;;;;;;;;;;21.22;30.84;101648.59;7283989;19;152081;-54
2022/04/10 12:09:42;;;;;;;;;;;;;;;21.18;31.10;101652.28;7280975;19;155475;-54
2022/04/10 12:12:09;;;;;;;;;;;;;;;21.15;30.78;101645.28;7279515;19;156733;-54
2022/04/10 12:14:36;;;;;;;;;;;;;;;21.15;30.58;101634.06;7283195;19;152197;-53
2022/04/10 12:17:03;;;;;;;;;;;;;;;21.13;30.78;101635.47;7287513;19;152846;-54
2022/04/10 12:19:30;;;;;;;;;;;;;;;21.11;30.75;101632.94;7283215;19;151900;-54
2022/04/10 12:21:57;;;;;;;;;;;;;;;21.09;30.80;101634.34;7282795;19;154527;-54
2022/04/10 12:24:24;;;;;;;;;;;;;;;21.06;31.06;101623.72;7281881;19;154468;-54
2022/04/10 12:26:51;;;;;;;;;;;;;;;21.07;30.83;101628.22;7283518;19;151780;-54
2022/04/10 12:29:18;;;;;;;;;;;;;;;21.05;31.06;101627.66;7283367;19;153842;-54
2022/04/10 12:31:45;;;;;;;;;;;;;;;21.03;30.90;101632.75;7281561;19;156495;-54
2022/04/10 12:34:13;;;;;;;;;;;;;;;21.01;31.16;101626.56;7282530;19;151794;-54
2022/04/10 12:36:45;;;;;;;;;;;;;;;21.01;31.18;101629.38;7289494;19;153367;-54
2022/04/10 12:39:22;;;;;;;;;;;;;;;21.00;30.93;101627.69;7281298;19;152360;-54